Ikast, Denmark
Current Conditions -  °F | °C
As of 5:50 PM on Friday 31 Oct 2014 (Local Time) from EKKA Reporting Station
Haze Haze  
Wind Chill: 55°   Ceiling: 300
Heat Index: 55°   Visibility: 1.2mi
Dew Point: 55°   Wind: 7mph
Humidity: 100%   Direction: 180°S
Pressure: 30.09"   Gusts: NA
Location:  56.14°N, 9.16°E
Report Text: EKKA 311650Z 18006KT 130V220 2000 BR BKN003 13/13 Q1019
Loading
Personal Weather Stations






























Interactive Weather Map
Tropical Storm Tracking
New forecast layout! Learn more

10-Day Weather Forecast

Advertisements
Track Severe Weather on mobile